Time;durP1;ratioP1;P1;durP2;ratioP2;P2;SDS_P1;SDS_P2;PMS_P1;PMS_P2;Temp;Humidity;BMP_temperature;BMP_pressure;BME280_temperature;BME280_humidity;BME280_pressure;Samples;Min_cycle;Max_cycle;Signal;HPM_P1;HPM_P2
2023/05/18 00:03:10;;;;;;;;;;;;;;;;;;;;;
2023/05/18 00:07:43;;;;;;;22.60;8.40;;;;;;;8.12;70.05;101133.42;125437;1303;639415;-67
2023/05/18 00:12:10;;;;;;;27.20;9.00;;;;;;;8.07;69.88;101134.80;127688;1293;128676;-71
2023/05/18 00:15:47;;;;;;;19.80;9.30;;;;;;;8.02;69.80;101132.98;126986;1308;115218;-68
2023/05/18 00:19:50;;;;;;;25.80;8.00;;;;;;;7.98;70.01;101135.40;122556;1294;5493397;-69
2023/05/18 00:23:44;;;;;;;;;;;;;;;;;;;;;
2023/05/18 00:27:31;;;;;;;25.40;9.60;;;;;;;7.90;70.10;101144.48;123886;1316;114981;-67
2023/05/18 00:35:58;;;;;;;;;;;;;;;;;;;;;
2023/05/18 00:39:45;;;;;;;;;;;;;;;;;;;;;
2023/05/18 00:43:42;;;;;;;29.20;10.10;;;;;;;7.69;70.47;101157.61;128048;1283;115203;-70
2023/05/18 00:47:47;;;;;;;27.20;9.20;;;;;;;7.62;70.81;101159.39;125622;1304;5507359;-67
2023/05/18 00:51:30;;;;;;;21.30;9.80;;;;;;;7.55;70.79;101170.02;126436;1301;114911;-68
2023/05/18 00:55:31;;;;;;;;;;;;;;;;;;;;;
2023/05/18 01:04:26;;;;;;;23.50;8.40;;;;;;;7.41;70.91;101178.70;125649;1299;637926;-69
2023/05/18 01:07:54;;;;;;;;;;;;;;;;;;;;;
2023/05/18 01:16:17;;;;;;;20.00;7.40;;;;;;;7.24;71.22;101191.68;122713;1313;5436011;-72
2023/05/18 01:20:32;;;;;;;19.60;6.80;;;;;;;7.19;71.21;101188.58;125728;1322;115003;-68
2023/05/18 01:24:42;;;;;;;16.10;6.80;;;;;;;7.15;71.21;101191.15;125758;1303;114705;-72
2023/05/18 01:32:47;;;;;;;21.10;6.00;;;;;;;7.09;70.99;101197.67;125021;1308;115494;-69
2023/05/18 01:45:31;;;;;;;16.80;5.80;;;;;;;7.10;71.45;101202.98;128370;1298;127594;-69
2023/05/18 01:49:36;;;;;;;23.40;6.30;;;;;;;7.10;71.13;101207.96;128192;1276;114760;-71
2023/05/18 02:01:55;;;;;;;;;;;;;;;;;;;;;
2023/05/18 02:05:59;;;;;;;15.60;5.70;;;;;;;7.05;71.15;101214.63;126959;1294;115403;-71
2023/05/18 02:10:02;;;;;;;19.20;5.50;;;;;;;7.04;71.21;101219.62;121914;1300;5510705;-70
2023/05/18 02:14:04;;;;;;;15.40;5.20;;;;;;;7.03;71.32;101220.89;124002;1318;114923;-71
2023/05/18 02:26:38;;;;;;;;;;;;;;;;;;;;;
2023/05/18 02:30:49;;;;;;;14.20;4.70;;;;;;;7.04;71.33;101222.98;127006;1296;114909;-70
2023/05/18 02:34:51;;;;;;;15.20;4.40;;;;;;;7.03;71.33;101225.31;122325;1299;5458232;-71
2023/05/18 02:38:52;;;;;;;16.00;4.10;;;;;;;7.03;71.12;101226.23;124899;1330;115016;-71
2023/05/18 02:47:12;;;;;;;18.30;4.90;;;;;;;7.01;71.05;101229.45;125921;1299;639089;-70
2023/05/18 02:54:46;;;;;;;14.50;4.70;;;;;;;7.02;71.16;101235.65;128455;1295;115227;-70
2023/05/18 02:58:49;;;;;;;12.80;4.40;;;;;;;7.02;70.99;101239.55;128319;1274;114910;-72
2023/05/18 03:02:56;;;;;;;21.00;4.90;;;;;;;7.02;71.00;101240.11;123462;1299;114935;-70
2023/05/18 03:06:46;;;;;;;17.00;4.60;;;;;;;7.03;70.53;101243.81;126119;1309;115156;-70
2023/05/18 03:15:05;;;;;;;;;;;;;;;;;;;;;
2023/05/18 03:19:00;;;;;;;;;;;;;;;;;;;;;
2023/05/18 03:23:04;;;;;;;15.50;3.50;;;;;;;7.11;70.59;101254.65;126796;1287;115035;-73
2023/05/18 03:26:44;;;;;;;;;;;;;;;;;;;;;
2023/05/18 03:30:30;;;;;;;11.70;4.40;;;;;;;7.18;70.26;101253.97;125201;1309;114962;-71
2023/05/18 03:34:31;;;;;;;12.90;4.60;;;;;;;7.24;70.27;101252.80;125024;1302;114929;-71
2023/05/18 03:42:57;;;;;;;;;;;;;;;;;;;;;
2023/05/18 03:46:42;;;;;;;;;;;;;;;;;;;;;
2023/05/18 03:50:43;;;;;;;13.10;4.90;;;;;;;7.33;69.83;101261.15;126188;1296;117161;-73
2023/05/18 03:55:00;;;;;;;22.50;6.00;;;;;;;7.33;70.00;101273.21;121392;1325;5426954;-72
2023/05/18 03:59:02;;;;;;;12.60;5.10;;;;;;;7.37;70.23;101273.52;123838;1321;114978;-73
2023/05/18 04:07:28;;;;;;;15.00;5.50;;;;;;;7.51;70.11;101277.66;126000;1301;636459;-70
2023/05/18 04:16:03;;;;;;;15.70;5.40;;;;;;;7.62;69.83;101286.84;125818;1297;639850;-69
2023/05/18 04:20:12;;;;;;;17.50;5.20;;;;;;;7.66;70.13;101291.23;127720;1280;129523;-72
2023/05/18 04:24:01;;;;;;;12.00;4.30;;;;;;;7.70;69.77;101295.58;126786;1287;115300;-71
2023/05/18 04:31:45;;;;;;;;;;;;;;;;;;;;;
2023/05/18 04:35:47;;;;;;;13.60;5.00;;;;;;;7.74;69.85;101302.59;125544;1305;116430;-71
2023/05/18 04:44:22;;;;;;;13.60;4.60;;;;;;;7.86;69.73;101306.77;125726;1303;638027;-72
2023/05/18 04:48:25;;;;;;;18.90;5.10;;;;;;;7.88;69.11;101306.20;126963;1287;126502;-72
2023/05/18 04:52:16;;;;;;;14.10;5.70;;;;;;;7.93;69.48;101303.61;125799;1301;116467;-72
2023/05/18 04:56:00;;;;;;;;;;;;;;;;;;;;;
2023/05/18 04:59:56;;;;;;;;;;;;;;;;;;;;;
2023/05/18 05:04:18;;;;;;;;;;;;;;;;;;;;;
2023/05/18 05:08:22;;;;;;;10.60;4.10;;;;;;;8.29;69.40;101312.56;129108;1269;128171;-73
2023/05/18 05:12:24;;;;;;;12.30;4.20;;;;;;;8.38;69.30;101309.86;127992;1283;116509;-71
2023/05/18 05:16:26;;;;;;;13.90;3.60;;;;;;;8.46;69.35;101318.58;122409;1297;5461733;-69
2023/05/18 05:25:00;;;;;;;17.20;4.90;;;;;;;8.76;69.22;101321.25;125959;1307;638541;-73
2023/05/18 05:28:52;;;;;;;;;;;;;;;;;;;;;
2023/05/18 05:32:55;;;;;;;10.30;4.00;;;;;;;9.04;68.15;101327.64;126657;1292;116463;-74
2023/05/18 05:36:58;;;;;;;21.00;4.90;;;;;;;9.15;67.67;101323.98;122736;1295;5542124;-72
2023/05/18 05:40:38;;;;;;;;;;;;;;;;;;;;;
2023/05/18 05:44:31;;;;;;;9.40;2.90;;;;;;;9.77;66.89;101324.02;124675;1323;114814;-72
2023/05/18 05:48:32;;;;;;;12.00;3.00;;;;;;;9.94;65.35;101326.35;124211;1319;128884;-72
2023/05/18 05:56:52;;;;;;;10.60;3.30;;;;;;;10.48;64.39;101326.65;125978;1300;637183;-74
2023/05/18 06:04:58;;;;;;;10.80;2.90;;;;;;;10.61;62.04;101331.79;127491;1286;115263;-73
2023/05/18 06:09:00;;;;;;;12.50;3.30;;;;;;;10.60;62.49;101326.09;122924;1299;5489930;-72
2023/05/18 06:12:12;;;;;;;11.90;3.30;;;;;;;10.79;62.63;101329.75;126358;1295;115146;-75
2023/05/18 06:16:16;;;;;;;9.90;3.10;;;;;;;10.93;62.50;101327.67;126356;1314;114993;-71
2023/05/18 06:20:16;;;;;;;11.20;3.20;;;;;;;11.14;61.88;101334.25;125750;1298;129855;-70
2023/05/18 06:24:11;;;;;;;8.00;2.20;;;;;;;11.23;60.46;101332.71;125262;1310;114725;-72
2023/05/18 06:36:40;;;;;;;8.60;3.20;;;;;;;11.50;59.20;101339.60;125627;1299;636304;-73
2023/05/18 06:40:43;;;;;;;9.60;3.10;;;;;;;11.53;59.52;101342.73;127937;1282;128989;-72
2023/05/18 06:44:45;;;;;;;8.50;2.10;;;;;;;11.56;58.03;101347.08;126925;1289;114796;-74
2023/05/18 06:48:48;;;;;;;7.70;2.20;;;;;;;11.68;57.36;101345.38;122534;1294;5410905;-74
2023/05/18 06:52:50;;;;;;;8.20;2.10;;;;;;;11.78;56.70;101341.09;125648;1303;114972;-75
2023/05/18 07:00:53;;;;;;;11.70;3.60;;;;;;;12.14;57.62;101342.26;124027;1335;114910;-70
2023/05/18 07:09:20;;;;;;;7.50;2.30;;;;;;;12.79;56.92;101343.19;126335;1296;635438;-71
2023/05/18 07:17:54;;;;;;;10.70;2.60;;;;;;;13.35;55.50;101342.61;126645;1296;115312;-73
2023/05/18 07:21:55;;;;;;;6.80;2.40;;;;;;;13.70;54.54;101346.23;122115;1301;5436105;-72
2023/05/18 07:29:48;;;;;;;8.90;1.70;;;;;;;14.06;53.03;101344.42;124324;1328;114808;-73
2023/05/18 07:38:10;;;;;;;9.40;2.00;;;;;;;14.47;53.55;101343.69;126492;1295;635325;-67
2023/05/18 07:42:13;;;;;;;7.30;2.00;;;;;;;14.79;53.36;101348.63;128867;1278;128903;-69
2023/05/18 07:50:19;;;;;;;7.40;2.30;;;;;;;15.28;51.40;101342.34;123289;1289;5415275;-67
2023/05/18 07:54:20;;;;;;;8.80;2.50;;;;;;;15.49;51.41;101342.90;126391;1299;114951;-67
2023/05/18 07:58:22;;;;;;;9.20;2.40;;;;;;;15.73;51.66;101339.59;125670;1304;114977;-68
2023/05/18 08:02:23;;;;;;;7.70;1.90;;;;;;;15.99;50.41;101338.20;124949;1324;115073;-70
2023/05/18 08:06:25;;;;;;;13.90;2.50;;;;;;;15.89;48.72;101339.80;124992;1310;129904;-72
2023/05/18 08:14:52;;;;;;;;;;;;;;;;;;;;;
2023/05/18 08:35:04;;;;;;;5.90;2.60;;;;;;;18.05;45.73;101332.65;125480;1307;114974;-72
2023/05/18 08:39:08;;;;;;;7.10;2.00;;;;;;;18.22;46.30;101321.77;124725;1310;114885;-72
2023/05/18 08:51:41;;;;;;;7.90;2.20;;;;;;;18.34;45.05;101324.98;128409;1293;127884;-67
2023/05/18 09:00:13;;;;;;;6.60;2.20;;;;;;;18.40;44.07;101323.19;126386;1295;636578;-63
2023/05/18 09:04:15;;;;;;;11.80;2.30;;;;;;;18.64;44.22;101322.48;130088;1264;128986;-64
2023/05/18 09:08:09;;;;;;;5.40;2.00;;;;;;;18.49;43.18;101324.39;128115;1281;115227;-64
2023/05/18 09:16:07;;;;;;;4.10;1.70;;;;;;;18.14;43.22;101317.60;126011;1309;115299;-64
2023/05/18 09:20:09;;;;;;;7.20;2.00;;;;;;;18.26;43.94;101314.48;126178;1311;114895;-62
2023/05/18 09:24:10;;;;;;;7.40;2.00;;;;;;;18.41;43.33;101317.30;126042;1298;115025;-66
2023/05/18 09:28:04;;;;;;;5.60;2.10;;;;;;;18.41;42.49;101324.91;125273;1317;130005;-65
2023/05/18 09:31:54;;;;;;;6.20;2.30;;;;;;;18.17;42.55;101323.23;124781;1307;115366;-64
2023/05/18 09:36:29;;;;;;;6.60;2.10;;;;;;;18.12;42.43;101321.58;125703;1296;639202;-64
2023/05/18 09:40:47;;;;;;;5.40;1.70;;;;;;;17.91;42.30;101317.62;127583;1287;128626;-65
2023/05/18 09:48:37;;;;;;;;;;;;;;;;;;;;;
2023/05/18 09:52:39;;;;;;;3.70;1.90;;;;;;;16.73;42.38;101314.71;125584;1302;114992;-64
2023/05/18 10:01:07;;;;;;;3.70;1.10;;;;;;;16.98;42.69;101305.14;125704;1310;639395;-62
2023/05/18 10:05:09;;;;;;;4.00;2.40;;;;;;;16.86;41.72;101302.94;127944;1280;128485;-63
2023/05/18 10:09:08;;;;;;;5.10;1.20;;;;;;;16.68;41.19;101305.27;127900;1279;114868;-64
2023/05/18 10:13:08;;;;;;;;;;;;;;;;;;;;;
2023/05/18 10:17:00;;;;;;;2.30;1.20;;;;;;;16.06;39.41;101310.08;126044;1298;114920;-64
2023/05/18 10:21:05;;;;;;;3.50;1.00;;;;;;;15.78;40.77;101303.52;125489;1306;114833;-63
2023/05/18 10:24:25;;;;;;;;;;;;;;;;;;;;;
2023/05/18 10:28:12;;;;;;;8.00;2.80;;;;;;;15.46;40.96;101305.58;125464;1314;129576;-65
2023/05/18 10:36:35;;;;;;;;;;;;;;;;;;;;;
2023/05/18 10:40:31;;;;;;;5.00;1.70;;;;;;;15.20;41.89;101301.39;127790;1283;127841;-64
2023/05/18 10:48:35;;;;;;;3.50;1.20;;;;;;;15.33;41.41;101304.46;122347;1303;5461152;-64
2023/05/18 10:52:37;;;;;;;2.40;0.80;;;;;;;15.26;41.48;101297.66;126190;1299;114934;-63
2023/05/18 10:56:38;;;;;;;6.50;2.10;;;;;;;15.29;41.87;101294.40;125263;1324;114875;-63
2023/05/18 11:09:12;;;;;;;4.80;1.30;;;;;;;15.11;40.96;101292.72;126750;1295;636002;-70
2023/05/18 11:13:15;;;;;;;11.00;5.50;;;;;;;15.09;42.14;101287.39;129298;1270;128567;-71
2023/05/18 11:17:18;;;;;;;2.50;1.10;;;;;;;15.15;40.20;101283.98;128182;1276;116532;-72
2023/05/18 11:21:20;;;;;;;6.10;1.30;;;;;;;15.18;41.23;101284.20;123975;1284;5432315;-72
2023/05/18 11:25:25;;;;;;;5.80;1.70;;;;;;;15.28;41.49;101282.26;126076;1309;114890;-70
2023/05/18 11:29:26;;;;;;;2.50;1.10;;;;;;;15.27;41.11;101282.48;125400;1307;114874;-70
2023/05/18 11:33:28;;;;;;;3.10;1.10;;;;;;;15.26;40.48;101285.41;124178;1327;114972;-73
2023/05/18 11:37:29;;;;;;;5.10;1.50;;;;;;;15.24;40.90;101288.56;124239;1324;129520;-71
2023/05/18 11:46:13;;;;;;;3.50;1.10;;;;;;;15.29;40.69;101275.69;126537;1295;638347;-73
2023/05/18 11:50:07;;;;;;;3.20;1.10;;;;;;;15.30;41.05;101282.33;128973;1279;128760;-73
2023/05/18 11:54:00;;;;;;;3.90;1.30;;;;;;;15.31;41.40;101280.63;128853;1278;114822;-73
2023/05/18 11:58:05;;;;;;;3.00;1.30;;;;;;;15.37;41.38;101280.52;123919;1296;5452022;-72
2023/05/18 12:02:33;;;;;;;32.20;15.40;;;;;;;15.31;41.65;101276.31;127410;1287;114899;-74
2023/05/18 12:10:13;;;;;;;;;;;;;;;;;;;;;
2023/05/18 12:14:15;;;;;;;6.40;1.80;;;;;;;15.50;41.22;101269.91;125097;1310;114917;-72
2023/05/18 12:22:24;;;;;;;3.40;1.30;;;;;;;15.55;40.10;101267.48;125178;1311;114905;-73
2023/05/18 12:34:29;;;;;;;6.20;3.00;;;;;;;15.57;40.30;101254.79;124567;1310;115314;-71
2023/05/18 12:38:24;;;;;;;2.30;1.10;;;;;;;15.60;39.72;101251.15;124549;1317;114970;-71
2023/05/18 12:46:58;;;;;;;1.90;1.10;;;;;;;15.60;38.97;101251.55;125676;1303;638476;-73
2023/05/18 12:51:01;;;;;;;;;;;;;;;;;;;;;
2023/05/18 12:55:09;;;;;;;4.70;2.50;;;;;;;15.59;39.79;101245.45;127138;1289;115304;-73
2023/05/18 12:59:12;;;;;;;3.10;1.60;;;;;;;15.62;40.20;101242.05;122456;1298;5497356;-72
2023/05/18 13:03:02;;;;;;;;;;;;;;;;;;;;;
2023/05/18 13:31:51;;;;;;;2.10;1.40;;;;;;;16.33;40.04;101235.20;126275;1315;114900;-75
2023/05/18 13:39:54;;;;;;;3.70;1.60;;;;;;;16.55;39.66;101228.48;125129;1313;114929;-72
2023/05/18 13:48:16;;;;;;;3.80;1.60;;;;;;;16.66;40.26;101219.13;126734;1303;635946;-72
2023/05/18 13:56:22;;;;;;;2.40;1.40;;;;;;;16.79;39.76;101213.84;127302;1287;115513;-73
2023/05/18 14:00:25;;;;;;;5.50;1.20;;;;;;;16.75;39.63;101204.21;122814;1292;5441905;-72
2023/05/18 14:04:26;;;;;;;2.70;1.50;;;;;;;16.78;39.24;101205.46;125973;1302;114973;-72
2023/05/18 14:12:48;;;;;;;2.50;1.30;;;;;;;16.81;38.99;101202.38;126152;1299;636962;-71
2023/05/18 14:16:50;;;;;;;2.60;1.20;;;;;;;16.89;39.62;101195.23;127448;1284;129132;-70
2023/05/18 14:20:54;;;;;;;4.30;1.50;;;;;;;17.10;39.69;101192.32;127385;1283;115248;-72
2023/05/18 14:24:56;;;;;;;3.20;1.50;;;;;;;17.28;39.47;101196.60;122687;1289;5464961;-74
2023/05/18 14:28:57;;;;;;;2.40;1.80;;;;;;;17.32;39.55;101201.45;125738;1303;114919;-69
2023/05/18 14:33:00;;;;;;;3.20;1.70;;;;;;;17.37;39.58;101196.77;125056;1309;114889;-70
2023/05/18 14:37:00;;;;;;;3.20;1.50;;;;;;;17.42;39.34;101188.48;124547;1310;114926;-73
2023/05/18 14:45:27;;;;;;;2.70;1.60;;;;;;;17.60;39.70;101183.55;125830;1301;636713;-69
2023/05/18 14:49:30;;;;;;;5.10;1.70;;;;;;;17.63;39.97;101185.86;127034;1290;128862;-72
2023/05/18 14:57:15;;;;;;;5.00;1.50;;;;;;;17.39;39.03;101189.79;122489;1316;2572886;-72
2023/05/18 15:01:17;;;;;;;3.10;1.50;;;;;;;17.34;39.69;101186.67;124231;1319;115092;-70
2023/05/18 15:09:40;;;;;;;1.80;1.10;;;;;;;17.34;39.62;101187.21;126723;1294;636790;-69
2023/05/18 15:13:39;;;;;;;;;;;;;;;;;;;;;
2023/05/18 15:21:37;;;;;;;;;;;;;;;;;;;;;
2023/05/18 15:25:40;;;;;;;9.10;1.90;;;;;;;17.35;39.92;101192.23;126881;1286;115320;-67
2023/05/18 15:29:41;;;;;;;2.90;1.50;;;;;;;17.31;39.47;101194.27;126732;1292;114942;-73
2023/05/18 15:33:43;;;;;;;3.50;1.60;;;;;;;17.11;39.54;101194.62;126199;1297;129855;-69
2023/05/18 15:37:45;;;;;;;2.10;1.50;;;;;;;17.04;40.28;101191.42;125667;1298;115361;-71
2023/05/18 15:41:35;;;;;;;2.90;1.30;;;;;;;17.03;40.22;101188.82;125167;1307;114963;-70
2023/05/18 15:45:14;;;;;;;;;;;;;;;;;;;;;
2023/05/18 15:53:11;;;;;;;;;;;;;;;;;;;;;
2023/05/18 15:57:11;;;;;;;;;;;;;;;;;;;;;
2023/05/18 16:01:27;;;;;;;;;;;;;;;;;;;;;
2023/05/18 16:05:13;;;;;;;2.90;1.40;;;;;;;16.86;40.87;101189.11;128634;1296;127878;-70
2023/05/18 16:17:21;;;;;;;4.40;1.50;;;;;;;16.40;42.07;101191.14;121542;1319;114906;-68
2023/05/18 16:21:23;;;;;;;3.00;1.70;;;;;;;16.30;41.96;101186.90;125252;1308;114986;-72
2023/05/18 16:29:40;;;;;;;2.90;1.10;;;;;;;16.33;42.18;101182.72;126136;1301;639081;-71
2023/05/18 16:33:40;;;;;;;2.00;1.20;;;;;;;16.36;42.53;101185.45;128090;1301;127544;-69
2023/05/18 16:37:41;;;;;;;;;;;;;;;;;;;;;
2023/05/18 16:42:06;;;;;;;4.70;1.20;;;;;;;16.23;42.34;101183.50;122703;1290;5519289;-71
2023/05/18 16:45:26;;;;;;;5.00;1.40;;;;;;;16.13;42.76;101188.23;126452;1293;116566;-68
2023/05/18 16:49:30;;;;;;;4.20;1.30;;;;;;;16.06;42.75;101193.27;127739;1286;114840;-69
2023/05/18 16:53:12;;;;;;;2.20;1.00;;;;;;;15.96;42.78;101194.23;126524;1295;129820;-70
2023/05/18 17:01:12;;;;;;;;;;;;;;;;;;;;;
2023/05/18 17:09:48;;;;;;;3.10;1.60;;;;;;;15.68;42.79;101194.71;125603;1301;638742;-72
2023/05/18 17:17:54;;;;;;;6.70;1.90;;;;;;;15.63;43.46;101197.17;125942;1294;640678;-72
2023/05/18 17:21:56;;;;;;;3.20;1.30;;;;;;;15.63;43.61;101202.20;128173;1282;126874;-72
2023/05/18 17:25:52;;;;;;;6.70;1.60;;;;;;;15.62;43.78;101204.23;127871;1283;115263;-70
2023/05/18 17:29:56;;;;;;;6.50;2.10;;;;;;;15.55;44.38;101202.49;123612;1293;5440350;-67
2023/05/18 17:33:50;;;;;;;;;;;;;;;;;;;;;
2023/05/18 17:42:26;;;;;;;2.00;1.70;;;;;;;15.36;45.10;101205.13;125653;1304;638279;-70
2023/05/18 17:46:28;;;;;;;7.80;3.00;;;;;;;15.27;45.21;101209.80;127246;1291;128825;-68
2023/05/18 17:55:01;;;;;;;4.60;1.70;;;;;;;15.12;45.62;101215.61;125744;1301;639300;-70
2023/05/18 17:59:04;;;;;;;5.30;2.00;;;;;;;15.06;45.77;101215.55;127471;1284;129041;-69
2023/05/18 18:03:09;;;;;;;3.70;1.80;;;;;;;14.98;46.31;101214.01;126196;1296;116411;-69
2023/05/18 18:06:52;;;;;;;;;;;;;;;14.88;46.34;101219.00;121251;1308;5442007;-69
2023/05/18 18:15:26;;;;;;;4.50;1.80;;;;;;;14.76;47.08;101223.08;125741;1300;638689;-69
2023/05/18 18:19:26;;;;;;;3.00;1.80;;;;;;;14.67;47.40;101222.64;127889;1282;127883;-71
2023/05/18 18:23:28;;;;;;;3.30;1.80;;;;;;;14.58;47.42;101224.69;127313;1283;115303;-67
2023/05/18 18:27:11;;;;;;;5.00;1.80;;;;;;;14.50;47.87;101223.48;122956;1293;5484811;-70
2023/05/18 18:31:08;;;;;;;3.70;2.20;;;;;;;14.41;47.95;101224.14;126977;1286;114947;-71
2023/05/18 18:35:10;;;;;;;6.50;2.60;;;;;;;14.33;48.30;101228.11;125680;1307;114907;-67
2023/05/18 18:39:12;;;;;;;5.40;2.20;;;;;;;14.23;48.46;101231.48;125238;1310;114831;-68
2023/05/18 18:47:45;;;;;;;3.50;2.20;;;;;;;14.06;48.74;101243.27;125735;1301;638881;-68
2023/05/18 18:51:38;;;;;;;;;;;;;;;;;;;;;
2023/05/18 18:55:42;;;;;;;4.40;2.40;;;;;;;13.86;49.49;101255.02;126151;1299;115355;-67
2023/05/18 19:04:16;;;;;;;3.80;2.50;;;;;;;13.67;50.18;101265.45;125457;1301;638672;-67
2023/05/18 19:08:19;;;;;;;5.30;2.80;;;;;;;13.53;50.58;101268.03;128507;1278;128840;-67
2023/05/18 19:12:21;;;;;;;4.30;2.60;;;;;;;13.44;50.88;101267.05;127358;1303;115438;-68
2023/05/18 19:16:24;;;;;;;5.10;2.50;;;;;;;13.32;51.15;101268.64;122489;1293;5507210;-67
2023/05/18 19:20:17;;;;;;;;;;;;;;;;;;;;;
2023/05/18 19:28:44;;;;;;;6.00;3.50;;;;;;;13.04;51.69;101273.78;125865;1300;636245;-67
2023/05/18 19:32:37;;;;;;;5.70;3.60;;;;;;;12.93;52.02;101278.40;127649;1284;129055;-67
2023/05/18 19:36:40;;;;;;;7.20;4.00;;;;;;;12.85;52.28;101276.59;127603;1286;115311;-68
2023/05/18 19:40:44;;;;;;;8.20;5.20;;;;;;;12.79;52.55;101278.15;122107;1313;5529712;-71
2023/05/18 19:44:45;;;;;;;10.10;5.00;;;;;;;12.72;53.45;101278.24;125028;1308;114860;-68
2023/05/18 19:53:21;;;;;;;8.10;4.80;;;;;;;12.55;53.69;101285.23;125813;1305;638395;-67
2023/05/18 19:57:25;;;;;;;11.20;5.00;;;;;;;12.44;54.05;101285.88;127875;1284;128912;-66
2023/05/18 20:01:26;;;;;;;7.50;4.90;;;;;;;12.30;54.43;101284.61;127125;1290;115242;-67
2023/05/18 20:09:32;;;;;;;6.60;3.60;;;;;;;12.08;54.94;101294.66;125648;1305;114961;-67
2023/05/18 20:18:07;;;;;;;6.60;4.00;;;;;;;11.91;55.48;101306.58;126221;1293;640208;-68
2023/05/18 20:22:00;;;;;;;6.10;3.20;;;;;;;11.82;55.76;101310.12;128559;1279;128861;-68
2023/05/18 20:26:02;;;;;;;7.90;3.60;;;;;;;11.75;55.90;101312.36;127916;1298;115212;-69
2023/05/18 20:29:57;;;;;;;6.00;3.40;;;;;;;11.67;56.11;101318.59;122915;1292;5441288;-66
2023/05/18 20:33:58;;;;;;;4.20;3.20;;;;;;;11.57;56.59;101318.42;125680;1300;114894;-69
2023/05/18 20:38:00;;;;;;;7.20;3.50;;;;;;;11.49;56.85;101319.44;125665;1299;114865;-67
2023/05/18 20:46:26;;;;;;;;;;;;;;;;;;;;;
2023/05/18 20:50:18;;;;;;;4.80;3.30;;;;;;;11.22;57.67;101325.20;126674;1290;128785;-68
2023/05/18 20:54:40;;;;;;;12.80;3.90;;;;;;;11.18;58.15;101329.69;125845;1311;638026;-70
2023/05/18 20:58:20;;;;;;;;;;;;;;;;;;;;;
2023/05/18 21:02:18;;;;;;;8.10;4.50;;;;;;;11.00;58.84;101330.80;129000;1287;115185;-70
2023/05/18 21:05:48;;;;;;;12.20;5.10;;;;;;;10.93;59.26;101330.53;128919;1269;114765;-70
2023/05/18 21:09:14;;;;;;;13.60;7.40;;;;;;;10.88;59.36;101330.53;125444;1270;114861;-69
2023/05/18 21:12:59;;;;;;;;;;;;;;;;;;;;;
2023/05/18 21:17:05;;;;;;;8.00;5.60;;;;;;;10.80;60.08;101334.53;129355;1267;114802;-67
2023/05/18 21:21:08;;;;;;;9.00;5.40;;;;;;;10.76;60.78;101337.70;128783;1275;128133;-67
2023/05/18 21:25:12;;;;;;;8.20;5.50;;;;;;;10.73;60.89;101337.98;127452;1286;115243;-70
2023/05/18 21:29:13;;;;;;;;;;;;;;;;;;;;;
2023/05/18 21:33:00;;;;;;;13.60;8.70;;;;;;;10.68;61.60;101336.55;125666;1320;114914;-67
2023/05/18 21:45:25;;;;;;;8.00;6.00;;;;;;;10.64;62.06;101338.63;128659;1284;128884;-67
2023/05/18 21:49:26;;;;;;;9.70;6.50;;;;;;;10.64;62.48;101341.69;128037;1286;115394;-68
2023/05/18 22:06:04;;;;;;;10.00;7.10;;;;;;;10.64;63.08;101349.71;125869;1301;637934;-68
2023/05/18 22:10:07;;;;;;;15.10;7.80;;;;;;;10.64;63.38;101352.02;127374;1288;128397;-67
2023/05/18 22:14:09;;;;;;;10.70;7.00;;;;;;;10.65;63.66;101353.27;126215;1292;115446;-69
2023/05/18 22:22:12;;;;;;;12.00;7.10;;;;;;;10.66;63.65;101352.89;124371;1323;115091;-67
2023/05/18 22:30:38;;;;;;;;;;;;;;;;;;;;;
2023/05/18 22:34:42;;;;;;;10.40;7.10;;;;;;;10.70;63.77;101349.16;127571;1287;127569;-68
2023/05/18 22:38:48;;;;;;;14.70;8.40;;;;;;;10.71;64.03;101343.24;125864;1319;115947;-68
2023/05/18 22:42:48;;;;;;;12.50;7.00;;;;;;;10.72;64.17;101344.29;121076;1310;5450713;-67
2023/05/18 22:46:49;;;;;;;11.10;6.60;;;;;;;10.72;64.25;101342.67;124066;1335;115087;-70
2023/05/18 22:59:27;;;;;;;10.40;6.30;;;;;;;10.77;64.63;101337.85;127005;1286;128721;-67
2023/05/18 23:03:28;;;;;;;12.50;6.10;;;;;;;10.77;64.75;101335.17;125726;1301;116376;-68
2023/05/18 23:07:27;;;;;;;;;;;;;;;;;;;;;
2023/05/18 23:11:20;;;;;;;15.40;6.80;;;;;;;10.80;64.69;101337.05;123614;1320;115096;-67
2023/05/18 23:15:43;;;;;;;14.70;6.20;;;;;;;10.81;64.44;101335.95;123529;1322;115000;-66
2023/05/18 23:23:38;;;;;;;;;;;;;;;;;;;;;
2023/05/18 23:27:42;;;;;;;10.60;6.50;;;;;;;10.82;64.94;101328.58;128142;1278;127766;-67
2023/05/18 23:31:44;;;;;;;11.10;6.20;;;;;;;10.80;65.35;101327.05;127177;1288;115268;-67
2023/05/18 23:35:47;;;;;;;7.40;5.00;;;;;;;10.76;65.65;101325.92;122504;1295;5434013;-67
2023/05/18 23:39:48;;;;;;;8.60;5.70;;;;;;;10.75;65.29;101323.10;125143;1308;114903;-67
2023/05/18 23:48:23;;;;;;;9.80;5.70;;;;;;;10.75;65.36;101317.20;126226;1301;640288;-67
2023/05/18 23:52:09;;;;;;;8.80;5.20;;;;;;;10.71;65.38;101312.33;127107;1290;128628;-67
